sensor_id;sensor_type;location;lat;lon;timestamp;pressure;altitude;pressure_sealevel;temperature;humidity
37202;BME280;37799;52.390;6.136;2023-02-14T00:01:44;103516.06;;;0.65;100.00
37202;BME280;37799;52.390;6.136;2023-02-14T00:04:10;103509.38;;;0.52;100.00
37202;BME280;37799;52.390;6.136;2023-02-14T00:06:35;103508.22;;;0.47;100.00
37202;BME280;37799;52.390;6.136;2023-02-14T00:09:04;103507.97;;;0.43;100.00
37202;BME280;37799;52.390;6.136;2023-02-14T00:11:30;103502.84;;;0.43;100.00
37202;BME280;37799;52.390;6.136;2023-02-14T00:13:56;103502.16;;;0.45;100.00
37202;BME280;37799;52.390;6.136;2023-02-14T00:16:40;103492.41;;;0.53;100.00
37202;BME280;37799;52.390;6.136;2023-02-14T00:19:05;103503.19;;;0.49;100.00
37202;BME280;37799;52.390;6.136;2023-02-14T00:21:33;103497.22;;;0.48;100.00
37202;BME280;37799;52.390;6.136;2023-02-14T00:24:11;103495.13;;;0.41;100.00
37202;BME280;37799;52.390;6.136;2023-02-14T00:26:36;103499.34;;;0.41;100.00
37202;BME280;37799;52.390;6.136;2023-02-14T00:29:07;103504.16;;;0.36;100.00
37202;BME280;37799;52.390;6.136;2023-02-14T00:31:33;103503.19;;;0.34;100.00
37202;BME280;37799;52.390;6.136;2023-02-14T00:33:59;103503.38;;;0.37;100.00
37202;BME280;37799;52.390;6.136;2023-02-14T00:36:24;103494.75;;;0.35;100.00
37202;BME280;37799;52.390;6.136;2023-02-14T00:38:50;103496.09;;;0.28;100.00
37202;BME280;37799;52.390;6.136;2023-02-14T00:41:16;103495.78;;;0.24;100.00
37202;BME280;37799;52.390;6.136;2023-02-14T00:43:45;103490.44;;;0.19;100.00
37202;BME280;37799;52.390;6.136;2023-02-14T00:46:12;103490.97;;;0.14;100.00
37202;BME280;37799;52.390;6.136;2023-02-14T00:48:37;103484.88;;;0.12;100.00
37202;BME280;37799;52.390;6.136;2023-02-14T00:51:02;103486.84;;;0.16;100.00
37202;BME280;37799;52.390;6.136;2023-02-14T00:53:28;103482.63;;;0.16;100.00
37202;BME280;37799;52.390;6.136;2023-02-14T00:55:53;103483.50;;;0.17;100.00
37202;BME280;37799;52.390;6.136;2023-02-14T00:58:18;103482.69;;;0.18;100.00
37202;BME280;37799;52.390;6.136;2023-02-14T01:00:44;103490.19;;;0.15;100.00
37202;BME280;37799;52.390;6.136;2023-02-14T01:03:09;103490.19;;;0.15;100.00
37202;BME280;37799;52.390;6.136;2023-02-14T01:05:34;103490.75;;;0.11;100.00
37202;BME280;37799;52.390;6.136;2023-02-14T01:08:00;103498.84;;;0.04;100.00
37202;BME280;37799;52.390;6.136;2023-02-14T01:10:25;103494.44;;;0.01;100.00
37202;BME280;37799;52.390;6.136;2023-02-14T01:12:50;103495.91;;;-0.03;100.00
37202;BME280;37799;52.390;6.136;2023-02-14T01:15:15;103493.09;;;-0.07;100.00
37202;BME280;37799;52.390;6.136;2023-02-14T01:17:41;103495.56;;;-0.09;100.00
37202;BME280;37799;52.390;6.136;2023-02-14T01:20:07;103493.97;;;-0.07;100.00
37202;BME280;37799;52.390;6.136;2023-02-14T01:22:36;103484.66;;;-0.06;100.00
37202;BME280;37799;52.390;6.136;2023-02-14T01:25:02;103487.03;;;-0.09;100.00
37202;BME280;37799;52.390;6.136;2023-02-14T01:27:28;103479.31;;;-0.11;100.00
37202;BME280;37799;52.390;6.136;2023-02-14T01:29:53;103487.84;;;-0.10;100.00
37202;BME280;37799;52.390;6.136;2023-02-14T01:32:19;103487.44;;;-0.16;100.00
37202;BME280;37799;52.390;6.136;2023-02-14T01:34:44;103478.66;;;-0.21;100.00
37202;BME280;37799;52.390;6.136;2023-02-14T01:37:09;103482.56;;;-0.26;100.00
37202;BME280;37799;52.390;6.136;2023-02-14T01:39:34;103489.56;;;-0.24;100.00
37202;BME280;37799;52.390;6.136;2023-02-14T01:42:00;103485.66;;;-0.32;100.00
37202;BME280;37799;52.390;6.136;2023-02-14T01:46:50;103479.00;;;-0.43;100.00
37202;BME280;37799;52.390;6.136;2023-02-14T01:49:20;103482.97;;;-0.48;100.00
37202;BME280;37799;52.390;6.136;2023-02-14T01:51:51;103480.09;;;-0.53;100.00
37202;BME280;37799;52.390;6.136;2023-02-14T01:54:18;103473.00;;;-0.58;100.00
37202;BME280;37799;52.390;6.136;2023-02-14T01:56:50;103470.34;;;-0.60;100.00
37202;BME280;37799;52.390;6.136;2023-02-14T01:59:20;103468.41;;;-0.64;100.00
37202;BME280;37799;52.390;6.136;2023-02-14T02:01:48;103473.38;;;-0.66;100.00
37202;BME280;37799;52.390;6.136;2023-02-14T02:04:18;103474.97;;;-0.68;100.00
37202;BME280;37799;52.390;6.136;2023-02-14T02:06:49;103473.97;;;-0.70;100.00
37202;BME280;37799;52.390;6.136;2023-02-14T02:09:28;103468.72;;;-0.73;100.00
37202;BME280;37799;52.390;6.136;2023-02-14T02:11:55;103466.16;;;-0.73;100.00
37202;BME280;37799;52.390;6.136;2023-02-14T02:14:22;103471.94;;;-0.75;100.00
37202;BME280;37799;52.390;6.136;2023-02-14T02:22:29;103459.28;;;-0.61;100.00
37202;BME280;37799;52.390;6.136;2023-02-14T02:25:21;103462.63;;;-0.62;100.00
37202;BME280;37799;52.390;6.136;2023-02-14T02:31:18;103458.19;;;-0.51;100.00
37202;BME280;37799;52.390;6.136;2023-02-14T02:37:13;103454.25;;;-0.46;100.00
37202;BME280;37799;52.390;6.136;2023-02-14T02:39:56;103453.38;;;-0.46;100.00
37202;BME280;37799;52.390;6.136;2023-02-14T02:47:40;103445.78;;;-0.60;100.00
37202;BME280;37799;52.390;6.136;2023-02-14T02:50:24;103445.69;;;-0.61;100.00
37202;BME280;37799;52.390;6.136;2023-02-14T02:53:26;103438.75;;;-0.64;100.00
37202;BME280;37799;52.390;6.136;2023-02-14T02:55:58;103434.63;;;-0.62;100.00
37202;BME280;37799;52.390;6.136;2023-02-14T02:58:47;103439.91;;;-0.58;100.00
37202;BME280;37799;52.390;6.136;2023-02-14T03:01:30;103436.97;;;-0.51;100.00
37202;BME280;37799;52.390;6.136;2023-02-14T03:04:05;103437.72;;;-0.52;100.00
37202;BME280;37799;52.390;6.136;2023-02-14T03:06:51;103435.56;;;-0.46;100.00
37202;BME280;37799;52.390;6.136;2023-02-14T03:14:34;103431.00;;;-0.52;100.00
37202;BME280;37799;52.390;6.136;2023-02-14T03:17:16;103441.84;;;-0.54;100.00
37202;BME280;37799;52.390;6.136;2023-02-14T03:20:01;103438.94;;;-0.61;100.00
37202;BME280;37799;52.390;6.136;2023-02-14T03:28:06;103430.16;;;-0.79;100.00
37202;BME280;37799;52.390;6.136;2023-02-14T03:36:13;103418.69;;;-1.13;100.00
37202;BME280;37799;52.390;6.136;2023-02-14T03:38:45;103414.16;;;-1.17;100.00
37202;BME280;37799;52.390;6.136;2023-02-14T03:41:17;103414.06;;;-1.19;100.00
37202;BME280;37799;52.390;6.136;2023-02-14T03:44:04;103419.16;;;-1.19;100.00
37202;BME280;37799;52.390;6.136;2023-02-14T03:47:08;103420.81;;;-1.20;100.00
37202;BME280;37799;52.390;6.136;2023-02-14T03:49:40;103418.00;;;-1.24;100.00
37202;BME280;37799;52.390;6.136;2023-02-14T03:52:09;103426.00;;;-1.31;100.00
37202;BME280;37799;52.390;6.136;2023-02-14T03:54:36;103417.22;;;-1.36;100.00
37202;BME280;37799;52.390;6.136;2023-02-14T03:57:27;103413.78;;;-1.37;100.00
37202;BME280;37799;52.390;6.136;2023-02-14T03:59:55;103411.84;;;-1.41;100.00
37202;BME280;37799;52.390;6.136;2023-02-14T04:02:26;103410.97;;;-1.41;100.00
37202;BME280;37799;52.390;6.136;2023-02-14T04:04:54;103408.44;;;-1.41;100.00
37202;BME280;37799;52.390;6.136;2023-02-14T04:07:23;103413.97;;;-1.47;100.00
37202;BME280;37799;52.390;6.136;2023-02-14T04:09:49;103416.63;;;-1.45;100.00
37202;BME280;37799;52.390;6.136;2023-02-14T04:12:15;103412.13;;;-1.36;100.00
37202;BME280;37799;52.390;6.136;2023-02-14T04:14:41;103405.19;;;-1.26;100.00
37202;BME280;37799;52.390;6.136;2023-02-14T04:17:06;103418.38;;;-1.18;100.00
37202;BME280;37799;52.390;6.136;2023-02-14T04:19:51;103411.53;;;-1.19;100.00
37202;BME280;37799;52.390;6.136;2023-02-14T04:22:16;103419.66;;;-1.11;100.00
37202;BME280;37799;52.390;6.136;2023-02-14T04:24:41;103412.22;;;-1.08;100.00
37202;BME280;37799;52.390;6.136;2023-02-14T04:27:07;103422.47;;;-1.07;100.00
37202;BME280;37799;52.390;6.136;2023-02-14T04:29:37;103411.41;;;-1.07;100.00
37202;BME280;37799;52.390;6.136;2023-02-14T04:32:04;103420.25;;;-1.02;100.00
37202;BME280;37799;52.390;6.136;2023-02-14T04:34:30;103415.44;;;-0.98;100.00
37202;BME280;37799;52.390;6.136;2023-02-14T04:36:55;103425.00;;;-0.94;100.00
37202;BME280;37799;52.390;6.136;2023-02-14T04:39:20;103424.34;;;-0.91;100.00
37202;BME280;37799;52.390;6.136;2023-02-14T04:41:46;103422.75;;;-0.89;100.00
37202;BME280;37799;52.390;6.136;2023-02-14T04:44:11;103418.81;;;-0.84;100.00
37202;BME280;37799;52.390;6.136;2023-02-14T04:46:36;103418.75;;;-0.85;100.00
37202;BME280;37799;52.390;6.136;2023-02-14T04:49:02;103424.34;;;-0.91;100.00
37202;BME280;37799;52.390;6.136;2023-02-14T04:51:27;103415.53;;;-0.96;100.00
37202;BME280;37799;52.390;6.136;2023-02-14T04:53:52;103413.75;;;-0.97;100.00
37202;BME280;37799;52.390;6.136;2023-02-14T04:56:17;103412.09;;;-0.97;100.00
37202;BME280;37799;52.390;6.136;2023-02-14T04:58:43;103413.75;;;-0.97;100.00
37202;BME280;37799;52.390;6.136;2023-02-14T05:01:08;103417.97;;;-0.98;100.00
37202;BME280;37799;52.390;6.136;2023-02-14T05:03:33;103409.56;;;-0.97;100.00
37202;BME280;37799;52.390;6.136;2023-02-14T05:05:59;103411.25;;;-1.10;100.00
37202;BME280;37799;52.390;6.136;2023-02-14T05:08:24;103414.75;;;-1.08;100.00
37202;BME280;37799;52.390;6.136;2023-02-14T05:10:49;103405.47;;;-1.08;100.00
37202;BME280;37799;52.390;6.136;2023-02-14T05:13:14;103402.81;;;-1.09;100.00
37202;BME280;37799;52.390;6.136;2023-02-14T05:15:43;103407.91;;;-1.09;100.00
37202;BME280;37799;52.390;6.136;2023-02-14T05:18:08;103404.13;;;-1.16;100.00
37202;BME280;37799;52.390;6.136;2023-02-14T05:20:34;103401.56;;;-1.16;100.00
37202;BME280;37799;52.390;6.136;2023-02-14T05:22:59;103406.53;;;-1.17;100.00
37202;BME280;37799;52.390;6.136;2023-02-14T05:25:28;103406.66;;;-1.16;100.00
37202;BME280;37799;52.390;6.136;2023-02-14T05:27:54;103399.59;;;-1.20;100.00
37202;BME280;37799;52.390;6.136;2023-02-14T05:30:19;103397.75;;;-1.23;100.00
37202;BME280;37799;52.390;6.136;2023-02-14T05:32:50;103404.91;;;-1.30;100.00
37202;BME280;37799;52.390;6.136;2023-02-14T05:35:16;103398.16;;;-1.30;100.00
37202;BME280;37799;52.390;6.136;2023-02-14T05:37:41;103400.09;;;-1.26;100.00
37202;BME280;37799;52.390;6.136;2023-02-14T05:40:07;103407.47;;;-1.30;100.00
37202;BME280;37799;52.390;6.136;2023-02-14T05:42:33;103397.47;;;-1.40;100.00
37202;BME280;37799;52.390;6.136;2023-02-14T05:44:58;103395.22;;;-1.49;100.00
37202;BME280;37799;52.390;6.136;2023-02-14T05:47:23;103394.16;;;-1.53;100.00
37202;BME280;37799;52.390;6.136;2023-02-14T05:49:49;103394.63;;;-1.58;100.00
37202;BME280;37799;52.390;6.136;2023-02-14T05:52:14;103392.06;;;-1.58;100.00
37202;BME280;37799;52.390;6.136;2023-02-14T05:54:39;103393.09;;;-1.56;100.00
37202;BME280;37799;52.390;6.136;2023-02-14T05:57:05;103390.91;;;-1.63;100.00
37202;BME280;37799;52.390;6.136;2023-02-14T05:59:30;103387.09;;;-1.57;100.00
37202;BME280;37799;52.390;6.136;2023-02-14T06:01:55;103394.06;;;-1.54;100.00
37202;BME280;37799;52.390;6.136;2023-02-14T06:04:21;103393.84;;;-1.57;100.00
37202;BME280;37799;52.390;6.136;2023-02-14T06:06:46;103395.63;;;-1.56;100.00
37202;BME280;37799;52.390;6.136;2023-02-14T06:09:11;103392.78;;;-1.61;100.00
37202;BME280;37799;52.390;6.136;2023-02-14T06:11:37;103396.00;;;-1.63;100.00
37202;BME280;37799;52.390;6.136;2023-02-14T06:14:02;103395.03;;;-1.65;100.00
37202;BME280;37799;52.390;6.136;2023-02-14T06:16:27;103389.34;;;-1.61;100.00
37202;BME280;37799;52.390;6.136;2023-02-14T06:18:52;103397.94;;;-1.59;100.00
37202;BME280;37799;52.390;6.136;2023-02-14T06:21:18;103393.66;;;-1.60;100.00
37202;BME280;37799;52.390;6.136;2023-02-14T06:23:43;103391.69;;;-1.51;100.00
37202;BME280;37799;52.390;6.136;2023-02-14T06:26:08;103389.44;;;-1.46;100.00
37202;BME280;37799;52.390;6.136;2023-02-14T06:28:34;103399.13;;;-1.41;100.00
37202;BME280;37799;52.390;6.136;2023-02-14T06:30:59;103386.63;;;-1.38;100.00
37202;BME280;37799;52.390;6.136;2023-02-14T06:33:24;103395.22;;;-1.36;100.00
37202;BME280;37799;52.390;6.136;2023-02-14T06:35:52;103387.78;;;-1.33;100.00
37202;BME280;37799;52.390;6.136;2023-02-14T06:38:18;103389.34;;;-1.35;100.00
37202;BME280;37799;52.390;6.136;2023-02-14T06:40:43;103388.19;;;-1.40;100.00
37202;BME280;37799;52.390;6.136;2023-02-14T06:43:08;103394.34;;;-1.50;100.00
37202;BME280;37799;52.390;6.136;2023-02-14T06:45:34;103395.50;;;-1.58;100.00
37202;BME280;37799;52.390;6.136;2023-02-14T06:47:59;103393.56;;;-1.62;100.00
37202;BME280;37799;52.390;6.136;2023-02-14T06:50:24;103395.81;;;-1.53;100.00
37202;BME280;37799;52.390;6.136;2023-02-14T06:52:50;103403.72;;;-1.49;100.00
37202;BME280;37799;52.390;6.136;2023-02-14T06:55:16;103401.88;;;-1.51;100.00
37202;BME280;37799;52.390;6.136;2023-02-14T06:57:41;103401.69;;;-1.54;100.00
37202;BME280;37799;52.390;6.136;2023-02-14T07:00:07;103406.16;;;-1.50;100.00
37202;BME280;37799;52.390;6.136;2023-02-14T07:02:34;103403.53;;;-1.38;100.00
37202;BME280;37799;52.390;6.136;2023-02-14T07:04:59;103404.91;;;-1.30;100.00
37202;BME280;37799;52.390;6.136;2023-02-14T07:07:24;103411.84;;;-1.28;100.00
37202;BME280;37799;52.390;6.136;2023-02-14T07:09:50;103410.19;;;-1.27;100.00
37202;BME280;37799;52.390;6.136;2023-02-14T07:12:16;103405.66;;;-1.31;100.00
37202;BME280;37799;52.390;6.136;2023-02-14T07:14:41;103409.88;;;-1.32;100.00
37202;BME280;37799;52.390;6.136;2023-02-14T07:17:07;103404.78;;;-1.32;100.00
37202;BME280;37799;52.390;6.136;2023-02-14T07:19:32;103412.72;;;-1.27;100.00
37202;BME280;37799;52.390;6.136;2023-02-14T07:21:57;103411.25;;;-1.24;100.00
37202;BME280;37799;52.390;6.136;2023-02-14T07:24:23;103417.91;;;-1.26;100.00
37202;BME280;37799;52.390;6.136;2023-02-14T07:26:48;103412.91;;;-1.24;100.00
37202;BME280;37799;52.390;6.136;2023-02-14T07:29:13;103402.25;;;-1.19;100.00
37202;BME280;37799;52.390;6.136;2023-02-14T07:31:39;103409.28;;;-1.14;100.00
37202;BME280;37799;52.390;6.136;2023-02-14T07:34:04;103412.63;;;-1.15;100.00
37202;BME280;37799;52.390;6.136;2023-02-14T07:36:29;103412.91;;;-1.11;100.00
37202;BME280;37799;52.390;6.136;2023-02-14T07:38:55;103416.50;;;-1.07;100.00
37202;BME280;37799;52.390;6.136;2023-02-14T07:41:21;103418.66;;;-1.00;100.00
37202;BME280;37799;52.390;6.136;2023-02-14T07:43:47;103414.81;;;-0.94;100.00
37202;BME280;37799;52.390;6.136;2023-02-14T07:46:12;103419.63;;;-0.85;100.00
37202;BME280;37799;52.390;6.136;2023-02-14T07:48:37;103408.66;;;-0.84;100.00
37202;BME280;37799;52.390;6.136;2023-02-14T07:51:03;103411.16;;;-0.71;100.00
37202;BME280;37799;52.390;6.136;2023-02-14T07:53:29;103407.13;;;-0.67;100.00
37202;BME280;37799;52.390;6.136;2023-02-14T07:55:54;103410.50;;;-0.53;100.00
37202;BME280;37799;52.390;6.136;2023-02-14T07:58:19;103414.34;;;-0.32;100.00
37202;BME280;37799;52.390;6.136;2023-02-14T08:00:45;103417.22;;;-0.13;100.00
37202;BME280;37799;52.390;6.136;2023-02-14T08:03:11;103408.19;;;0.07;100.00
37202;BME280;37799;52.390;6.136;2023-02-14T08:05:36;103410.91;;;0.25;100.00
37202;BME280;37799;52.390;6.136;2023-02-14T08:08:02;103406.72;;;0.40;100.00
37202;BME280;37799;52.390;6.136;2023-02-14T08:10:27;103413.34;;;0.68;100.00
37202;BME280;37799;52.390;6.136;2023-02-14T08:12:52;103402.84;;;1.09;100.00
37202;BME280;37799;52.390;6.136;2023-02-14T08:15:24;103400.34;;;1.58;100.00
37202;BME280;37799;52.390;6.136;2023-02-14T08:18:08;103403.72;;;1.91;100.00
37202;BME280;37799;52.390;6.136;2023-02-14T08:20:34;103413.91;;;2.23;100.00
37202;BME280;37799;52.390;6.136;2023-02-14T08:22:59;103416.25;;;2.72;100.00
37202;BME280;37799;52.390;6.136;2023-02-14T08:25:24;103416.59;;;2.97;100.00
37202;BME280;37799;52.390;6.136;2023-02-14T08:27:49;103417.72;;;3.22;100.00
37202;BME280;37799;52.390;6.136;2023-02-14T08:30:15;103422.53;;;3.72;100.00
37202;BME280;37799;52.390;6.136;2023-02-14T08:32:40;103419.59;;;4.03;100.00
37202;BME280;37799;52.390;6.136;2023-02-14T08:35:06;103413.75;;;4.48;100.00
37202;BME280;37799;52.390;6.136;2023-02-14T08:37:31;103421.06;;;4.59;100.00
37202;BME280;37799;52.390;6.136;2023-02-14T08:39:57;103430.63;;;4.84;100.00
37202;BME280;37799;52.390;6.136;2023-02-14T08:42:22;103429.84;;;4.87;100.00
37202;BME280;37799;52.390;6.136;2023-02-14T08:44:47;103428.81;;;5.04;100.00
37202;BME280;37799;52.390;6.136;2023-02-14T08:47:13;103436.97;;;5.16;100.00
37202;BME280;37799;52.390;6.136;2023-02-14T08:49:38;103423.00;;;5.32;100.00
37202;BME280;37799;52.390;6.136;2023-02-14T08:52:03;103419.25;;;5.70;100.00
37202;BME280;37799;52.390;6.136;2023-02-14T08:54:29;103422.66;;;5.69;100.00
37202;BME280;37799;52.390;6.136;2023-02-14T08:56:54;103424.06;;;5.85;100.00
37202;BME280;37799;52.390;6.136;2023-02-14T08:59:19;103426.81;;;5.89;100.00
37202;BME280;37799;52.390;6.136;2023-02-14T09:01:44;103428.13;;;6.02;100.00
37202;BME280;37799;52.390;6.136;2023-02-14T09:04:10;103429.09;;;6.31;100.00
37202;BME280;37799;52.390;6.136;2023-02-14T09:06:38;103426.84;;;6.15;100.00
37202;BME280;37799;52.390;6.136;2023-02-14T09:09:04;103424.56;;;6.24;100.00
37202;BME280;37799;52.390;6.136;2023-02-14T09:11:30;103420.03;;;6.42;100.00
37202;BME280;37799;52.390;6.136;2023-02-14T09:13:56;103425.75;;;6.61;100.00
37202;BME280;37799;52.390;6.136;2023-02-14T09:16:22;103427.91;;;6.74;100.00
37202;BME280;37799;52.390;6.136;2023-02-14T09:18:53;103427.25;;;6.79;100.00
37202;BME280;37799;52.390;6.136;2023-02-14T09:21:25;103423.91;;;6.84;100.00
37202;BME280;37799;52.390;6.136;2023-02-14T09:23:51;103416.38;;;6.90;100.00
37202;BME280;37799;52.390;6.136;2023-02-14T09:26:17;103416.47;;;6.93;100.00
37202;BME280;37799;52.390;6.136;2023-02-14T09:28:43;103420.09;;;6.99;100.00
37202;BME280;37799;52.390;6.136;2023-02-14T09:31:16;103414.63;;;7.17;100.00
37202;BME280;37799;52.390;6.136;2023-02-14T09:33:42;103414.38;;;7.38;100.00
37202;BME280;37799;52.390;6.136;2023-02-14T09:36:08;103412.13;;;7.50;100.00
37202;BME280;37799;52.390;6.136;2023-02-14T09:38:43;103410.38;;;7.81;100.00
37202;BME280;37799;52.390;6.136;2023-02-14T09:41:37;103410.47;;;7.84;100.00
37202;BME280;37799;52.390;6.136;2023-02-14T09:44:03;103408.19;;;7.94;100.00
37202;BME280;37799;52.390;6.136;2023-02-14T09:46:41;103405.69;;;7.97;100.00
37202;BME280;37799;52.390;6.136;2023-02-14T09:49:13;103409.72;;;7.88;100.00
37202;BME280;37799;52.390;6.136;2023-02-14T09:51:44;103410.19;;;8.06;100.00
37202;BME280;37799;52.390;6.136;2023-02-14T09:54:13;103412.19;;;8.18;100.00
37202;BME280;37799;52.390;6.136;2023-02-14T09:59:23;103403.50;;;8.85;100.00
37202;BME280;37799;52.390;6.136;2023-02-14T10:01:52;103408.75;;;8.88;100.00
37202;BME280;37799;52.390;6.136;2023-02-14T10:07:30;103411.38;;;8.90;100.00
37202;BME280;37799;52.390;6.136;2023-02-14T10:12:30;103403.66;;;9.33;100.00
37202;BME280;37799;52.390;6.136;2023-02-14T10:15:00;103408.22;;;9.45;100.00
37202;BME280;37799;52.390;6.136;2023-02-14T10:17:38;103400.72;;;9.59;100.00
37202;BME280;37799;52.390;6.136;2023-02-14T10:20:15;103401.91;;;9.76;100.00
37202;BME280;37799;52.390;6.136;2023-02-14T10:22:46;103408.38;;;9.99;100.00
37202;BME280;37799;52.390;6.136;2023-02-14T10:25:28;103407.50;;;9.99;100.00
37202;BME280;37799;52.390;6.136;2023-02-14T10:27:57;103410.75;;;10.37;100.00
37202;BME280;37799;52.390;6.136;2023-02-14T10:30:25;103412.63;;;10.44;100.00
37202;BME280;37799;52.390;6.136;2023-02-14T10:33:11;103410.72;;;10.34;100.00
37202;BME280;37799;52.390;6.136;2023-02-14T10:35:48;103408.53;;;10.60;100.00
37202;BME280;37799;52.390;6.136;2023-02-14T10:44:14;103412.91;;;11.29;100.00
37202;BME280;37799;52.390;6.136;2023-02-14T10:46:55;103407.81;;;11.34;100.00
37202;BME280;37799;52.390;6.136;2023-02-14T10:52:00;103408.75;;;11.42;100.00
37202;BME280;37799;52.390;6.136;2023-02-14T10:54:41;103406.94;;;11.35;100.00
37202;BME280;37799;52.390;6.136;2023-02-14T10:57:31;103411.19;;;11.30;100.00
37202;BME280;37799;52.390;6.136;2023-02-14T11:00:04;103403.22;;;11.14;100.00
37202;BME280;37799;52.390;6.136;2023-02-14T11:02:36;103389.88;;;11.55;100.00
37202;BME280;37799;52.390;6.136;2023-02-14T11:05:04;103401.44;;;11.85;100.00
37202;BME280;37799;52.390;6.136;2023-02-14T11:07:30;103399.81;;;11.96;100.00
37202;BME280;37799;52.390;6.136;2023-02-14T11:09:55;103399.28;;;12.36;100.00
37202;BME280;37799;52.390;6.136;2023-02-14T11:12:37;103397.66;;;12.48;100.00
37202;BME280;37799;52.390;6.136;2023-02-14T11:15:17;103397.69;;;12.52;100.00
37202;BME280;37799;52.390;6.136;2023-02-14T11:17:44;103400.53;;;12.92;100.00
37202;BME280;37799;52.390;6.136;2023-02-14T11:20:23;103403.00;;;12.72;100.00
37202;BME280;37799;52.390;6.136;2023-02-14T11:22:49;103397.72;;;12.60;100.00
37202;BME280;37799;52.390;6.136;2023-02-14T11:25:26;103388.28;;;12.71;100.00
37202;BME280;37799;52.390;6.136;2023-02-14T11:27:58;103388.34;;;12.79;100.00
37202;BME280;37799;52.390;6.136;2023-02-14T11:30:37;103391.72;;;12.64;100.00
37202;BME280;37799;52.390;6.136;2023-02-14T11:33:03;103381.41;;;12.85;100.00
37202;BME280;37799;52.390;6.136;2023-02-14T11:35:31;103375.50;;;13.17;100.00
37202;BME280;37799;52.390;6.136;2023-02-14T11:38:03;103374.72;;;13.28;100.00
37202;BME280;37799;52.390;6.136;2023-02-14T11:40:32;103368.66;;;13.40;100.00
37202;BME280;37799;52.390;6.136;2023-02-14T11:43:01;103368.72;;;13.58;100.00
37202;BME280;37799;52.390;6.136;2023-02-14T11:45:44;103365.28;;;13.81;100.00
37202;BME280;37799;52.390;6.136;2023-02-14T11:48:26;103360.91;;;13.68;100.00
37202;BME280;37799;52.390;6.136;2023-02-14T11:53:28;103361.75;;;13.59;100.00
37202;BME280;37799;52.390;6.136;2023-02-14T11:55:56;103358.25;;;13.52;100.00
37202;BME280;37799;52.390;6.136;2023-02-14T11:58:30;103354.81;;;13.63;100.00
37202;BME280;37799;52.390;6.136;2023-02-14T12:00:58;103349.63;;;14.01;100.00
37202;BME280;37799;52.390;6.136;2023-02-14T12:03:27;103353.97;;;14.18;100.00
37202;BME280;37799;52.390;6.136;2023-02-14T12:05:53;103347.88;;;13.77;100.00
37202;BME280;37799;52.390;6.136;2023-02-14T12:08:26;103342.69;;;13.98;100.00
37202;BME280;37799;52.390;6.136;2023-02-14T12:13:27;103343.56;;;13.74;100.00
37202;BME280;37799;52.390;6.136;2023-02-14T12:15:55;103341.81;;;13.64;100.00
37202;BME280;37799;52.390;6.136;2023-02-14T12:18:53;103332.22;;;13.51;100.00
37202;BME280;37799;52.390;6.136;2023-02-14T12:24:12;103319.22;;;13.48;100.00
37202;BME280;37799;52.390;6.136;2023-02-14T12:26:48;103317.50;;;13.45;100.00
37202;BME280;37799;52.390;6.136;2023-02-14T12:29:21;103307.91;;;13.37;100.00
37202;BME280;37799;52.390;6.136;2023-02-14T12:31:50;103309.66;;;13.36;100.00
37202;BME280;37799;52.390;6.136;2023-02-14T12:34:16;103300.97;;;13.25;100.00
37202;BME280;37799;52.390;6.136;2023-02-14T12:39:33;103293.94;;;13.03;100.00
37202;BME280;37799;52.390;6.136;2023-02-14T12:45:07;103291.31;;;12.99;100.00
37202;BME280;37799;52.390;6.136;2023-02-14T13:02:45;103261.88;;;13.07;100.00
37202;BME280;37799;52.390;6.136;2023-02-14T13:05:23;103260.13;;;13.03;100.00
37202;BME280;37799;52.390;6.136;2023-02-14T13:10:52;103244.53;;;13.15;100.00
37202;BME280;37799;52.390;6.136;2023-02-14T13:13:32;103248.00;;;13.09;100.00
37202;BME280;37799;52.390;6.136;2023-02-14T13:16:15;103241.94;;;13.06;100.00
37202;BME280;37799;52.390;6.136;2023-02-14T13:21:15;103237.59;;;13.09;100.00
37202;BME280;37799;52.390;6.136;2023-02-14T13:23:49;103232.38;;;13.12;100.00
37202;BME280;37799;52.390;6.136;2023-02-14T13:26:20;103227.16;;;12.95;100.00
37202;BME280;37799;52.390;6.136;2023-02-14T13:28:57;103229.75;;;12.95;100.00
37202;BME280;37799;52.390;6.136;2023-02-14T13:31:26;103225.44;;;13.00;100.00
37202;BME280;37799;52.390;6.136;2023-02-14T13:34:02;103222.91;;;13.31;100.00
37202;BME280;37799;52.390;6.136;2023-02-14T13:36:31;103221.16;;;13.27;100.00
37202;BME280;37799;52.390;6.136;2023-02-14T13:38:58;103218.53;;;13.16;100.00
37202;BME280;37799;52.390;6.136;2023-02-14T13:41:25;103212.50;;;13.33;100.00
37202;BME280;37799;52.390;6.136;2023-02-14T13:43:54;103216.81;;;13.17;100.00
37202;BME280;37799;52.390;6.136;2023-02-14T13:51:49;103202.03;;;13.13;100.00
37202;BME280;37799;52.390;6.136;2023-02-14T13:54:27;103200.31;;;13.04;100.00
37202;BME280;37799;52.390;6.136;2023-02-14T13:56:53;103201.16;;;12.92;100.00
37202;BME280;37799;52.390;6.136;2023-02-14T13:59:32;103200.28;;;12.90;100.00
37202;BME280;37799;52.390;6.136;2023-02-14T14:04:52;103192.47;;;12.89;100.00
37202;BME280;37799;52.390;6.136;2023-02-14T14:17:44;103175.97;;;12.75;100.00
37202;BME280;37799;52.390;6.136;2023-02-14T14:23:32;103189.00;;;12.82;100.00
37202;BME280;37799;52.390;6.136;2023-02-14T14:27:59;103178.56;;;12.73;100.00
37202;BME280;37799;52.390;6.136;2023-02-14T14:30:27;103186.31;;;12.59;100.00
37202;BME280;37799;52.390;6.136;2023-02-14T14:32:55;103174.16;;;12.49;100.00
37202;BME280;37799;52.390;6.136;2023-02-14T14:35:23;103180.22;;;12.45;100.00
37202;BME280;37799;52.390;6.136;2023-02-14T14:37:50;103175.06;;;12.54;100.00
37202;BME280;37799;52.390;6.136;2023-02-14T14:40:28;103172.47;;;12.53;100.00
37202;BME280;37799;52.390;6.136;2023-02-14T14:43:06;103171.50;;;12.35;100.00
37202;BME280;37799;52.390;6.136;2023-02-14T14:45:34;103169.78;;;12.34;100.00